Hauptseite
METAR-TAF:

METAR-TAF

Flughäfen :

Enugu, Nigeria

Breite: 06-28N, Länge: 007-33E, Höhe: 137 m

Beobachtung

Neuester Wetterbericht von vor 37 Minuten, um 03:00 UTC
Wind 3 kt aus Ost/Südost
Temperatur 23°C
Luftfeuchtigkeit 100%
Luftdruck 1012 hPa
Sichtweite 10 km oder mehr
Durchbrochene Bewölkung in der Höhe von 900 ft
Leichtregen,

METAR: DNEN 180300Z 11003KT 9999 -RA BKN009 23/23 Q1012 NOSIG

Zeit: 04:37 (03:37 UTC)


TAF: fehlend

Wetterbeobachtungen und Prognosen von mehr als 4000 Flughäfen (METAR und TAF Bericht).

Die verfügbaren Stationen werden durch gelbe und rote Markierungen auf der Karte dargestellt.

Führen Sie die Maus auf sie, um den Namen der Station zu sehen.

Darauf klicken, um die Beobachtung von Wetterbeobachtungen und Prognosen zu sehen.

Um die Karte zu ändern : klicken Sie auf den grünen Tasten mit einem schwarzen Kreuz Zum Vergrößern, auf den grünen Button mit einem Gedankenstrich zu verkleinern, oder auf die grünen Pfeile für benachbarte Karten.


METAR-TAF: